sensor_id;sensor_type;location;lat;lon;timestamp;P1;durP1;ratioP1;P2;durP2;ratioP2
25175;SDS011;13135;55.166;61.286;2023-07-13T00:01:39;5.43;;;4.28;;
25175;SDS011;13135;55.166;61.286;2023-07-13T00:04:24;6.78;;;4.18;;
25175;SDS011;13135;55.166;61.286;2023-07-13T00:07:08;5.47;;;4.40;;
25175;SDS011;13135;55.166;61.286;2023-07-13T00:09:54;5.57;;;4.03;;
25175;SDS011;13135;55.166;61.286;2023-07-13T00:12:39;5.55;;;4.30;;
25175;SDS011;13135;55.166;61.286;2023-07-13T00:15:25;5.72;;;3.87;;
25175;SDS011;13135;55.166;61.286;2023-07-13T00:18:09;4.90;;;3.85;;
25175;SDS011;13135;55.166;61.286;2023-07-13T00:20:54;7.10;;;4.10;;
25175;SDS011;13135;55.166;61.286;2023-07-13T00:23:39;5.47;;;3.70;;
25175;SDS011;13135;55.166;61.286;2023-07-13T00:26:23;8.65;;;3.50;;
25175;SDS011;13135;55.166;61.286;2023-07-13T00:29:08;4.28;;;3.40;;
25175;SDS011;13135;55.166;61.286;2023-07-13T00:31:53;6.32;;;3.70;;
25175;SDS011;13135;55.166;61.286;2023-07-13T00:34:38;6.87;;;3.62;;
25175;SDS011;13135;55.166;61.286;2023-07-13T00:37:22;6.10;;;3.90;;
25175;SDS011;13135;55.166;61.286;2023-07-13T00:40:09;5.15;;;3.58;;
25175;SDS011;13135;55.166;61.286;2023-07-13T00:42:52;4.75;;;3.70;;
25175;SDS011;13135;55.166;61.286;2023-07-13T00:48:53;4.12;;;3.67;;
25175;SDS011;13135;55.166;61.286;2023-07-13T00:51:43;4.62;;;3.55;;
25175;SDS011;13135;55.166;61.286;2023-07-13T00:54:29;6.57;;;3.40;;
25175;SDS011;13135;55.166;61.286;2023-07-13T00:57:26;5.78;;;3.40;;
25175;SDS011;13135;55.166;61.286;2023-07-13T01:00:11;4.53;;;3.40;;
25175;SDS011;13135;55.166;61.286;2023-07-13T01:02:56;4.75;;;3.10;;
25175;SDS011;13135;55.166;61.286;2023-07-13T01:05:41;4.97;;;3.00;;
25175;SDS011;13135;55.166;61.286;2023-07-13T01:08:28;4.37;;;2.83;;
25175;SDS011;13135;55.166;61.286;2023-07-13T01:11:18;4.90;;;2.97;;
25175;SDS011;13135;55.166;61.286;2023-07-13T01:13:59;5.00;;;2.92;;
25175;SDS011;13135;55.166;61.286;2023-07-13T01:16:44;3.55;;;2.62;;
25175;SDS011;13135;55.166;61.286;2023-07-13T01:19:43;3.80;;;2.75;;
25175;SDS011;13135;55.166;61.286;2023-07-13T01:22:26;5.70;;;2.70;;
25175;SDS011;13135;55.166;61.286;2023-07-13T01:25:10;10.00;;;2.87;;
25175;SDS011;13135;55.166;61.286;2023-07-13T01:27:55;5.32;;;2.60;;
25175;SDS011;13135;55.166;61.286;2023-07-13T01:30:40;5.72;;;2.85;;
25175;SDS011;13135;55.166;61.286;2023-07-13T01:33:25;3.28;;;2.60;;
25175;SDS011;13135;55.166;61.286;2023-07-13T01:36:10;2.40;;;2.20;;
25175;SDS011;13135;55.166;61.286;2023-07-13T01:38:54;5.15;;;2.67;;
25175;SDS011;13135;55.166;61.286;2023-07-13T01:41:38;2.60;;;2.30;;
25175;SDS011;13135;55.166;61.286;2023-07-13T01:44:23;3.17;;;2.60;;
25175;SDS011;13135;55.166;61.286;2023-07-13T01:47:08;2.97;;;2.30;;
25175;SDS011;13135;55.166;61.286;2023-07-13T01:49:53;4.85;;;2.20;;
25175;SDS011;13135;55.166;61.286;2023-07-13T01:52:38;3.15;;;2.10;;
25175;SDS011;13135;55.166;61.286;2023-07-13T01:55:23;2.75;;;2.30;;
25175;SDS011;13135;55.166;61.286;2023-07-13T01:58:08;2.30;;;2.10;;
25175;SDS011;13135;55.166;61.286;2023-07-13T02:00:53;5.37;;;2.10;;
25175;SDS011;13135;55.166;61.286;2023-07-13T02:03:36;5.15;;;2.03;;
25175;SDS011;13135;55.166;61.286;2023-07-13T02:06:21;10.15;;;7.25;;
25175;SDS011;13135;55.166;61.286;2023-07-13T02:09:06;2.85;;;1.85;;
25175;SDS011;13135;55.166;61.286;2023-07-13T02:11:51;3.03;;;1.92;;
25175;SDS011;13135;55.166;61.286;2023-07-13T02:14:36;2.87;;;1.90;;
25175;SDS011;13135;55.166;61.286;2023-07-13T02:17:21;2.92;;;1.90;;
25175;SDS011;13135;55.166;61.286;2023-07-13T02:20:06;2.42;;;1.80;;
25175;SDS011;13135;55.166;61.286;2023-07-13T02:22:50;2.10;;;1.80;;
25175;SDS011;13135;55.166;61.286;2023-07-13T02:25:35;2.37;;;1.40;;
25175;SDS011;13135;55.166;61.286;2023-07-13T02:28:20;2.85;;;1.80;;
25175;SDS011;13135;55.166;61.286;2023-07-13T02:31:06;3.03;;;1.70;;
25175;SDS011;13135;55.166;61.286;2023-07-13T02:33:54;2.55;;;1.80;;
25175;SDS011;13135;55.166;61.286;2023-07-13T02:36:40;2.30;;;2.10;;
25175;SDS011;13135;55.166;61.286;2023-07-13T02:39:25;6.70;;;3.15;;
25175;SDS011;13135;55.166;61.286;2023-07-13T02:42:10;3.53;;;2.10;;
25175;SDS011;13135;55.166;61.286;2023-07-13T02:44:55;4.32;;;1.85;;
25175;SDS011;13135;55.166;61.286;2023-07-13T02:47:40;3.40;;;1.70;;
25175;SDS011;13135;55.166;61.286;2023-07-13T02:50:24;3.12;;;1.85;;
25175;SDS011;13135;55.166;61.286;2023-07-13T02:53:09;3.70;;;1.87;;
25175;SDS011;13135;55.166;61.286;2023-07-13T02:55:54;2.45;;;1.80;;
25175;SDS011;13135;55.166;61.286;2023-07-13T02:58:39;2.70;;;1.80;;
25175;SDS011;13135;55.166;61.286;2023-07-13T03:01:25;2.47;;;1.58;;
25175;SDS011;13135;55.166;61.286;2023-07-13T03:04:10;1.70;;;1.60;;
25175;SDS011;13135;55.166;61.286;2023-07-13T03:06:54;2.80;;;1.60;;
25175;SDS011;13135;55.166;61.286;2023-07-13T03:09:39;4.35;;;1.40;;
25175;SDS011;13135;55.166;61.286;2023-07-13T03:12:24;2.33;;;1.70;;
25175;SDS011;13135;55.166;61.286;2023-07-13T03:15:08;2.17;;;1.37;;
25175;SDS011;13135;55.166;61.286;2023-07-13T03:17:49;2.65;;;1.50;;
25175;SDS011;13135;55.166;61.286;2023-07-13T03:20:33;5.53;;;1.40;;
25175;SDS011;13135;55.166;61.286;2023-07-13T03:26:47;2.58;;;1.60;;
25175;SDS011;13135;55.166;61.286;2023-07-13T03:29:30;4.12;;;3.45;;
25175;SDS011;13135;55.166;61.286;2023-07-13T03:32:15;2.00;;;1.60;;
25175;SDS011;13135;55.166;61.286;2023-07-13T03:35:00;2.40;;;1.60;;
25175;SDS011;13135;55.166;61.286;2023-07-13T03:37:45;2.08;;;1.60;;
25175;SDS011;13135;55.166;61.286;2023-07-13T03:40:30;1.90;;;1.70;;
25175;SDS011;13135;55.166;61.286;2023-07-13T03:43:15;4.72;;;1.62;;
25175;SDS011;13135;55.166;61.286;2023-07-13T03:46:01;3.75;;;1.70;;
25175;SDS011;13135;55.166;61.286;2023-07-13T03:48:46;3.05;;;1.75;;
25175;SDS011;13135;55.166;61.286;2023-07-13T03:51:31;2.35;;;1.87;;
25175;SDS011;13135;55.166;61.286;2023-07-13T03:54:15;1.92;;;1.77;;
25175;SDS011;13135;55.166;61.286;2023-07-13T03:56:59;1.90;;;1.70;;
25175;SDS011;13135;55.166;61.286;2023-07-13T03:59:44;3.05;;;2.37;;
25175;SDS011;13135;55.166;61.286;2023-07-13T04:02:31;3.50;;;2.05;;
25175;SDS011;13135;55.166;61.286;2023-07-13T04:05:16;2.67;;;2.00;;
25175;SDS011;13135;55.166;61.286;2023-07-13T04:08:00;2.58;;;2.10;;
25175;SDS011;13135;55.166;61.286;2023-07-13T04:10:42;3.28;;;2.20;;
25175;SDS011;13135;55.166;61.286;2023-07-13T04:13:27;5.53;;;2.40;;
25175;SDS011;13135;55.166;61.286;2023-07-13T04:16:11;3.55;;;2.15;;
25175;SDS011;13135;55.166;61.286;2023-07-13T04:18:55;5.12;;;2.17;;
25175;SDS011;13135;55.166;61.286;2023-07-13T04:21:39;4.07;;;2.17;;
25175;SDS011;13135;55.166;61.286;2023-07-13T04:24:24;2.40;;;1.92;;
25175;SDS011;13135;55.166;61.286;2023-07-13T04:27:08;3.45;;;2.15;;
25175;SDS011;13135;55.166;61.286;2023-07-13T04:29:53;2.75;;;2.10;;
25175;SDS011;13135;55.166;61.286;2023-07-13T04:32:37;2.65;;;2.20;;
25175;SDS011;13135;55.166;61.286;2023-07-13T04:35:24;4.20;;;2.28;;
25175;SDS011;13135;55.166;61.286;2023-07-13T04:38:09;3.10;;;1.90;;
25175;SDS011;13135;55.166;61.286;2023-07-13T04:40:56;3.00;;;2.00;;
25175;SDS011;13135;55.166;61.286;2023-07-13T04:43:41;2.80;;;2.22;;
25175;SDS011;13135;55.166;61.286;2023-07-13T04:46:25;3.17;;;2.08;;
25175;SDS011;13135;55.166;61.286;2023-07-13T04:49:14;2.60;;;2.40;;
25175;SDS011;13135;55.166;61.286;2023-07-13T04:51:59;2.87;;;2.45;;
25175;SDS011;13135;55.166;61.286;2023-07-13T04:54:44;2.87;;;2.00;;
25175;SDS011;13135;55.166;61.286;2023-07-13T04:57:29;2.58;;;2.10;;
25175;SDS011;13135;55.166;61.286;2023-07-13T05:03:36;4.62;;;2.22;;
25175;SDS011;13135;55.166;61.286;2023-07-13T05:06:23;2.92;;;2.05;;
25175;SDS011;13135;55.166;61.286;2023-07-13T05:09:07;2.47;;;2.00;;
25175;SDS011;13135;55.166;61.286;2023-07-13T05:11:52;2.62;;;2.30;;
25175;SDS011;13135;55.166;61.286;2023-07-13T05:14:36;2.75;;;2.20;;
25175;SDS011;13135;55.166;61.286;2023-07-13T05:17:21;4.78;;;2.37;;
25175;SDS011;13135;55.166;61.286;2023-07-13T05:20:07;3.22;;;1.92;;
25175;SDS011;13135;55.166;61.286;2023-07-13T05:22:51;2.05;;;1.85;;
25175;SDS011;13135;55.166;61.286;2023-07-13T05:25:36;4.78;;;2.28;;
25175;SDS011;13135;55.166;61.286;2023-07-13T05:28:20;5.10;;;4.00;;
25175;SDS011;13135;55.166;61.286;2023-07-13T05:31:07;2.37;;;2.17;;
25175;SDS011;13135;55.166;61.286;2023-07-13T05:33:51;3.37;;;2.00;;
25175;SDS011;13135;55.166;61.286;2023-07-13T05:36:35;2.97;;;2.03;;
25175;SDS011;13135;55.166;61.286;2023-07-13T05:39:23;2.58;;;1.92;;
25175;SDS011;13135;55.166;61.286;2023-07-13T05:42:07;3.50;;;2.20;;
25175;SDS011;13135;55.166;61.286;2023-07-13T05:44:53;3.62;;;2.08;;
25175;SDS011;13135;55.166;61.286;2023-07-13T05:47:37;2.50;;;1.87;;
25175;SDS011;13135;55.166;61.286;2023-07-13T05:50:22;3.42;;;2.00;;
25175;SDS011;13135;55.166;61.286;2023-07-13T05:53:07;3.42;;;2.20;;
25175;SDS011;13135;55.166;61.286;2023-07-13T05:55:53;2.70;;;1.85;;
25175;SDS011;13135;55.166;61.286;2023-07-13T05:58:37;3.17;;;1.80;;
25175;SDS011;13135;55.166;61.286;2023-07-13T06:01:30;2.12;;;1.92;;
25175;SDS011;13135;55.166;61.286;2023-07-13T06:04:15;2.40;;;1.90;;
25175;SDS011;13135;55.166;61.286;2023-07-13T06:07:02;1.98;;;1.70;;
25175;SDS011;13135;55.166;61.286;2023-07-13T06:09:46;3.42;;;1.73;;
25175;SDS011;13135;55.166;61.286;2023-07-13T06:15:48;1.80;;;1.65;;
25175;SDS011;13135;55.166;61.286;2023-07-13T06:18:35;2.00;;;1.80;;
25175;SDS011;13135;55.166;61.286;2023-07-13T06:21:20;3.15;;;1.83;;
25175;SDS011;13135;55.166;61.286;2023-07-13T06:24:04;2.03;;;1.90;;
25175;SDS011;13135;55.166;61.286;2023-07-13T06:26:50;2.97;;;1.90;;
25175;SDS011;13135;55.166;61.286;2023-07-13T06:29:35;1.92;;;1.65;;
25175;SDS011;13135;55.166;61.286;2023-07-13T06:32:20;2.22;;;1.80;;
25175;SDS011;13135;55.166;61.286;2023-07-13T06:35:05;2.30;;;1.75;;
25175;SDS011;13135;55.166;61.286;2023-07-13T06:37:49;3.08;;;1.52;;
25175;SDS011;13135;55.166;61.286;2023-07-13T06:40:34;2.83;;;1.90;;
25175;SDS011;13135;55.166;61.286;2023-07-13T06:43:19;2.12;;;1.80;;
25175;SDS011;13135;55.166;61.286;2023-07-13T06:46:03;1.95;;;1.73;;
25175;SDS011;13135;55.166;61.286;2023-07-13T06:48:50;2.95;;;1.67;;
25175;SDS011;13135;55.166;61.286;2023-07-13T06:51:35;3.47;;;1.90;;
25175;SDS011;13135;55.166;61.286;2023-07-13T06:54:21;2.00;;;1.80;;
25175;SDS011;13135;55.166;61.286;2023-07-13T06:57:06;2.20;;;1.73;;
25175;SDS011;13135;55.166;61.286;2023-07-13T06:59:51;2.47;;;1.92;;
25175;SDS011;13135;55.166;61.286;2023-07-13T07:02:36;1.80;;;1.60;;
25175;SDS011;13135;55.166;61.286;2023-07-13T07:05:20;2.08;;;1.75;;
25175;SDS011;13135;55.166;61.286;2023-07-13T07:08:07;1.70;;;1.40;;
25175;SDS011;13135;55.166;61.286;2023-07-13T07:10:52;3.72;;;1.80;;
25175;SDS011;13135;55.166;61.286;2023-07-13T07:13:36;3.15;;;1.90;;
25175;SDS011;13135;55.166;61.286;2023-07-13T07:16:27;3.05;;;1.80;;
25175;SDS011;13135;55.166;61.286;2023-07-13T07:19:33;2.95;;;1.50;;
25175;SDS011;13135;55.166;61.286;2023-07-13T07:22:18;4.30;;;1.75;;
25175;SDS011;13135;55.166;61.286;2023-07-13T07:25:04;1.80;;;1.70;;
25175;SDS011;13135;55.166;61.286;2023-07-13T07:27:48;3.90;;;2.50;;
25175;SDS011;13135;55.166;61.286;2023-07-13T07:30:32;3.70;;;2.40;;
25175;SDS011;13135;55.166;61.286;2023-07-13T07:33:17;3.65;;;1.80;;
25175;SDS011;13135;55.166;61.286;2023-07-13T07:36:04;1.80;;;1.60;;
25175;SDS011;13135;55.166;61.286;2023-07-13T07:38:49;3.60;;;1.85;;
25175;SDS011;13135;55.166;61.286;2023-07-13T07:41:34;1.70;;;1.52;;
25175;SDS011;13135;55.166;61.286;2023-07-13T07:44:19;3.42;;;1.48;;
25175;SDS011;13135;55.166;61.286;2023-07-13T07:47:03;2.35;;;1.40;;
25175;SDS011;13135;55.166;61.286;2023-07-13T07:49:47;1.55;;;1.37;;
25175;SDS011;13135;55.166;61.286;2023-07-13T07:52:32;3.62;;;1.48;;
25175;SDS011;13135;55.166;61.286;2023-07-13T07:55:17;1.95;;;1.50;;
25175;SDS011;13135;55.166;61.286;2023-07-13T07:58:04;2.62;;;1.60;;
25175;SDS011;13135;55.166;61.286;2023-07-13T08:00:47;2.45;;;1.52;;
25175;SDS011;13135;55.166;61.286;2023-07-13T08:03:31;2.55;;;1.60;;
25175;SDS011;13135;55.166;61.286;2023-07-13T08:06:15;2.62;;;1.30;;
25175;SDS011;13135;55.166;61.286;2023-07-13T08:09:00;2.00;;;1.70;;
25175;SDS011;13135;55.166;61.286;2023-07-13T08:11:43;2.12;;;1.55;;
25175;SDS011;13135;55.166;61.286;2023-07-13T08:14:29;5.97;;;1.75;;
25175;SDS011;13135;55.166;61.286;2023-07-13T08:17:16;3.75;;;1.60;;
25175;SDS011;13135;55.166;61.286;2023-07-13T08:20:03;1.85;;;1.60;;
25175;SDS011;13135;55.166;61.286;2023-07-13T08:22:49;2.62;;;1.60;;
25175;SDS011;13135;55.166;61.286;2023-07-13T08:25:36;2.08;;;1.90;;
25175;SDS011;13135;55.166;61.286;2023-07-13T08:28:23;4.22;;;1.83;;
25175;SDS011;13135;55.166;61.286;2023-07-13T08:31:09;2.70;;;1.73;;
25175;SDS011;13135;55.166;61.286;2023-07-13T08:33:56;4.40;;;1.65;;
25175;SDS011;13135;55.166;61.286;2023-07-13T08:36:53;1.70;;;1.60;;
25175;SDS011;13135;55.166;61.286;2023-07-13T08:39:47;2.53;;;1.62;;
25175;SDS011;13135;55.166;61.286;2023-07-13T08:42:36;1.60;;;1.50;;
25175;SDS011;13135;55.166;61.286;2023-07-13T08:45:23;3.15;;;1.70;;
25175;SDS011;13135;55.166;61.286;2023-07-13T08:48:13;3.80;;;1.40;;
25175;SDS011;13135;55.166;61.286;2023-07-13T08:51:04;4.55;;;1.55;;
25175;SDS011;13135;55.166;61.286;2023-07-13T08:53:55;1.50;;;1.40;;
25175;SDS011;13135;55.166;61.286;2023-07-13T08:56:37;2.87;;;1.50;;
25175;SDS011;13135;55.166;61.286;2023-07-13T08:59:25;1.73;;;1.50;;
25175;SDS011;13135;55.166;61.286;2023-07-13T09:02:20;2.70;;;1.40;;
25175;SDS011;13135;55.166;61.286;2023-07-13T09:05:18;2.55;;;1.60;;
25175;SDS011;13135;55.166;61.286;2023-07-13T09:08:08;1.37;;;1.27;;
25175;SDS011;13135;55.166;61.286;2023-07-13T09:10:52;1.73;;;1.62;;
25175;SDS011;13135;55.166;61.286;2023-07-13T09:13:41;2.03;;;1.58;;
25175;SDS011;13135;55.166;61.286;2023-07-13T09:16:25;1.52;;;1.42;;
25175;SDS011;13135;55.166;61.286;2023-07-13T09:19:14;7.32;;;1.40;;
25175;SDS011;13135;55.166;61.286;2023-07-13T09:22:38;3.30;;;1.70;;
25175;SDS011;13135;55.166;61.286;2023-07-13T09:25:30;2.05;;;1.62;;
25175;SDS011;13135;55.166;61.286;2023-07-13T09:32:02;3.40;;;1.90;;
25175;SDS011;13135;55.166;61.286;2023-07-13T09:34:50;3.92;;;1.90;;
25175;SDS011;13135;55.166;61.286;2023-07-13T09:37:34;1.98;;;1.80;;
25175;SDS011;13135;55.166;61.286;2023-07-13T09:40:38;1.95;;;1.70;;
25175;SDS011;13135;55.166;61.286;2023-07-13T09:43:16;2.95;;;1.73;;
25175;SDS011;13135;55.166;61.286;2023-07-13T09:46:01;3.55;;;1.65;;
25175;SDS011;13135;55.166;61.286;2023-07-13T09:48:47;1.98;;;1.60;;
25175;SDS011;13135;55.166;61.286;2023-07-13T09:51:27;3.28;;;1.65;;
25175;SDS011;13135;55.166;61.286;2023-07-13T09:54:20;1.55;;;1.45;;
25175;SDS011;13135;55.166;61.286;2023-07-13T09:57:15;1.75;;;1.30;;
25175;SDS011;13135;55.166;61.286;2023-07-13T10:00:02;2.15;;;1.20;;
25175;SDS011;13135;55.166;61.286;2023-07-13T10:02:49;1.20;;;1.10;;
25175;SDS011;13135;55.166;61.286;2023-07-13T10:05:41;1.23;;;1.12;;
25175;SDS011;13135;55.166;61.286;2023-07-13T10:08:25;2.47;;;1.20;;
25175;SDS011;13135;55.166;61.286;2023-07-13T10:11:20;2.60;;;1.00;;
25175;SDS011;13135;55.166;61.286;2023-07-13T10:16:59;2.22;;;1.00;;
25175;SDS011;13135;55.166;61.286;2023-07-13T10:19:45;3.33;;;1.15;;
25175;SDS011;13135;55.166;61.286;2023-07-13T10:22:41;2.62;;;0.90;;
25175;SDS011;13135;55.166;61.286;2023-07-13T10:25:16;1.58;;;0.98;;
25175;SDS011;13135;55.166;61.286;2023-07-13T10:31:10;1.80;;;1.10;;
25175;SDS011;13135;55.166;61.286;2023-07-13T10:33:53;2.33;;;0.90;;
25175;SDS011;13135;55.166;61.286;2023-07-13T10:40:14;1.10;;;1.00;;
25175;SDS011;13135;55.166;61.286;2023-07-13T10:43:00;1.30;;;1.20;;
25175;SDS011;13135;55.166;61.286;2023-07-13T10:45:45;1.50;;;0.98;;
25175;SDS011;13135;55.166;61.286;2023-07-13T10:48:29;3.37;;;1.15;;
25175;SDS011;13135;55.166;61.286;2023-07-13T10:51:17;1.87;;;1.08;;
25175;SDS011;13135;55.166;61.286;2023-07-13T10:57:55;1.60;;;0.93;;
25175;SDS011;13135;55.166;61.286;2023-07-13T11:00:43;3.20;;;0.90;;
25175;SDS011;13135;55.166;61.286;2023-07-13T11:10:47;2.78;;;1.20;;
25175;SDS011;13135;55.166;61.286;2023-07-13T11:19:24;1.20;;;1.10;;
25175;SDS011;13135;55.166;61.286;2023-07-13T11:28:30;5.32;;;1.45;;
25175;SDS011;13135;55.166;61.286;2023-07-13T11:31:14;4.05;;;1.37;;
25175;SDS011;13135;55.166;61.286;2023-07-13T11:34:13;1.90;;;1.40;;
25175;SDS011;13135;55.166;61.286;2023-07-13T11:36:56;2.78;;;1.30;;
25175;SDS011;13135;55.166;61.286;2023-07-13T11:39:41;1.50;;;1.30;;
25175;SDS011;13135;55.166;61.286;2023-07-13T11:42:26;3.67;;;1.50;;
25175;SDS011;13135;55.166;61.286;2023-07-13T11:48:37;3.53;;;1.60;;
25175;SDS011;13135;55.166;61.286;2023-07-13T11:51:26;2.58;;;1.40;;
25175;SDS011;13135;55.166;61.286;2023-07-13T11:54:43;1.60;;;1.50;;
25175;SDS011;13135;55.166;61.286;2023-07-13T11:57:29;3.62;;;1.70;;
25175;SDS011;13135;55.166;61.286;2023-07-13T12:00:13;1.70;;;1.60;;
25175;SDS011;13135;55.166;61.286;2023-07-13T12:06:30;2.20;;;1.65;;
25175;SDS011;13135;55.166;61.286;2023-07-13T12:09:29;3.42;;;1.80;;
25175;SDS011;13135;55.166;61.286;2023-07-13T12:12:18;2.85;;;1.90;;
25175;SDS011;13135;55.166;61.286;2023-07-13T12:15:06;3.53;;;1.80;;
25175;SDS011;13135;55.166;61.286;2023-07-13T12:17:57;7.93;;;2.28;;
25175;SDS011;13135;55.166;61.286;2023-07-13T12:21:10;2.90;;;1.70;;
25175;SDS011;13135;55.166;61.286;2023-07-13T12:24:17;2.60;;;1.73;;
25175;SDS011;13135;55.166;61.286;2023-07-13T12:27:02;1.90;;;1.80;;
25175;SDS011;13135;55.166;61.286;2023-07-13T12:29:51;2.90;;;1.85;;
25175;SDS011;13135;55.166;61.286;2023-07-13T12:32:35;2.78;;;2.00;;
25175;SDS011;13135;55.166;61.286;2023-07-13T12:35:19;5.95;;;2.10;;
25175;SDS011;13135;55.166;61.286;2023-07-13T12:38:04;4.80;;;1.90;;
25175;SDS011;13135;55.166;61.286;2023-07-13T12:40:50;1.65;;;1.52;;
25175;SDS011;13135;55.166;61.286;2023-07-13T12:43:35;3.28;;;1.70;;
25175;SDS011;13135;55.166;61.286;2023-07-13T12:46:19;5.18;;;1.70;;
25175;SDS011;13135;55.166;61.286;2023-07-13T12:49:04;3.72;;;1.52;;
25175;SDS011;13135;55.166;61.286;2023-07-13T12:51:49;3.58;;;1.67;;
25175;SDS011;13135;55.166;61.286;2023-07-13T12:54:32;2.83;;;2.00;;
25175;SDS011;13135;55.166;61.286;2023-07-13T12:57:17;3.90;;;1.80;;
25175;SDS011;13135;55.166;61.286;2023-07-13T13:00:02;2.58;;;1.80;;
25175;SDS011;13135;55.166;61.286;2023-07-13T13:02:48;2.33;;;1.77;;
25175;SDS011;13135;55.166;61.286;2023-07-13T13:05:29;2.78;;;1.87;;
25175;SDS011;13135;55.166;61.286;2023-07-13T13:08:14;3.20;;;1.70;;
25175;SDS011;13135;55.166;61.286;2023-07-13T13:10:58;2.92;;;1.92;;
25175;SDS011;13135;55.166;61.286;2023-07-13T13:13:43;3.62;;;2.03;;
25175;SDS011;13135;55.166;61.286;2023-07-13T13:16:30;4.80;;;1.87;;
25175;SDS011;13135;55.166;61.286;2023-07-13T13:19:17;4.53;;;1.98;;
25175;SDS011;13135;55.166;61.286;2023-07-13T13:22:00;5.35;;;1.77;;
25175;SDS011;13135;55.166;61.286;2023-07-13T13:24:43;3.05;;;1.80;;
25175;SDS011;13135;55.166;61.286;2023-07-13T13:27:29;1.60;;;1.50;;
25175;SDS011;13135;55.166;61.286;2023-07-13T13:30:14;2.10;;;1.90;;
25175;SDS011;13135;55.166;61.286;2023-07-13T13:33:00;1.77;;;1.60;;
25175;SDS011;13135;55.166;61.286;2023-07-13T13:35:45;2.00;;;1.80;;
25175;SDS011;13135;55.166;61.286;2023-07-13T13:38:29;2.45;;;1.60;;
25175;SDS011;13135;55.166;61.286;2023-07-13T13:41:16;3.05;;;2.00;;
25175;SDS011;13135;55.166;61.286;2023-07-13T13:44:00;4.80;;;3.22;;
25175;SDS011;13135;55.166;61.286;2023-07-13T13:46:45;2.05;;;1.87;;
25175;SDS011;13135;55.166;61.286;2023-07-13T13:49:30;2.10;;;1.90;;
25175;SDS011;13135;55.166;61.286;2023-07-13T13:52:15;2.62;;;1.70;;
25175;SDS011;13135;55.166;61.286;2023-07-13T13:55:00;2.53;;;1.90;;
25175;SDS011;13135;55.166;61.286;2023-07-13T13:57:47;3.10;;;2.83;;
25175;SDS011;13135;55.166;61.286;2023-07-13T14:00:31;9.40;;;7.32;;
25175;SDS011;13135;55.166;61.286;2023-07-13T14:03:18;5.18;;;3.20;;
25175;SDS011;13135;55.166;61.286;2023-07-13T14:06:02;2.08;;;1.75;;
25175;SDS011;13135;55.166;61.286;2023-07-13T14:08:47;4.30;;;1.60;;
25175;SDS011;13135;55.166;61.286;2023-07-13T14:14:56;3.35;;;2.10;;
25175;SDS011;13135;55.166;61.286;2023-07-13T14:17:48;3.92;;;1.80;;
25175;SDS011;13135;55.166;61.286;2023-07-13T14:24:15;2.37;;;1.70;;
25175;SDS011;13135;55.166;61.286;2023-07-13T14:27:12;2.00;;;1.62;;
25175;SDS011;13135;55.166;61.286;2023-07-13T14:30:24;1.95;;;1.75;;
25175;SDS011;13135;55.166;61.286;2023-07-13T14:39:46;4.43;;;2.85;;
25175;SDS011;13135;55.166;61.286;2023-07-13T14:42:31;5.78;;;2.22;;
25175;SDS011;13135;55.166;61.286;2023-07-13T14:45:19;2.33;;;1.77;;
25175;SDS011;13135;55.166;61.286;2023-07-13T14:48:01;2.55;;;2.03;;
25175;SDS011;13135;55.166;61.286;2023-07-13T14:50:46;2.35;;;1.95;;
25175;SDS011;13135;55.166;61.286;2023-07-13T14:53:33;2.20;;;2.00;;
25175;SDS011;13135;55.166;61.286;2023-07-13T14:56:17;2.30;;;1.60;;
25175;SDS011;13135;55.166;61.286;2023-07-13T14:59:01;2.30;;;2.10;;
25175;SDS011;13135;55.166;61.286;2023-07-13T15:01:46;2.58;;;2.05;;
25175;SDS011;13135;55.166;61.286;2023-07-13T15:04:30;3.35;;;1.90;;
25175;SDS011;13135;55.166;61.286;2023-07-13T15:10:37;3.87;;;2.28;;
25175;SDS011;13135;55.166;61.286;2023-07-13T15:13:22;1.92;;;1.70;;
25175;SDS011;13135;55.166;61.286;2023-07-13T15:19:19;2.58;;;2.10;;
25175;SDS011;13135;55.166;61.286;2023-07-13T15:22:04;2.80;;;1.95;;
25175;SDS011;13135;55.166;61.286;2023-07-13T15:24:56;2.30;;;1.92;;
25175;SDS011;13135;55.166;61.286;2023-07-13T15:27:51;3.17;;;1.98;;
25175;SDS011;13135;55.166;61.286;2023-07-13T15:34:16;2.42;;;2.20;;
25175;SDS011;13135;55.166;61.286;2023-07-13T15:37:01;2.83;;;2.50;;
25175;SDS011;13135;55.166;61.286;2023-07-13T15:39:48;3.25;;;2.15;;
25175;SDS011;13135;55.166;61.286;2023-07-13T15:42:50;3.50;;;2.35;;
25175;SDS011;13135;55.166;61.286;2023-07-13T15:45:56;5.30;;;2.00;;
25175;SDS011;13135;55.166;61.286;2023-07-13T15:48:41;3.35;;;1.98;;
25175;SDS011;13135;55.166;61.286;2023-07-13T15:54:50;3.12;;;2.17;;
25175;SDS011;13135;55.166;61.286;2023-07-13T16:04:31;3.00;;;2.20;;
25175;SDS011;13135;55.166;61.286;2023-07-13T16:07:18;4.10;;;2.50;;
25175;SDS011;13135;55.166;61.286;2023-07-13T16:10:02;5.90;;;2.30;;
25175;SDS011;13135;55.166;61.286;2023-07-13T16:12:46;2.95;;;2.20;;
25175;SDS011;13135;55.166;61.286;2023-07-13T16:15:31;3.75;;;2.30;;
25175;SDS011;13135;55.166;61.286;2023-07-13T16:18:16;3.08;;;2.33;;
25175;SDS011;13135;55.166;61.286;2023-07-13T16:21:04;3.33;;;2.45;;
25175;SDS011;13135;55.166;61.286;2023-07-13T16:28:03;4.55;;;2.50;;
25175;SDS011;13135;55.166;61.286;2023-07-13T16:30:47;6.72;;;2.90;;
25175;SDS011;13135;55.166;61.286;2023-07-13T16:33:31;4.93;;;2.70;;
25175;SDS011;13135;55.166;61.286;2023-07-13T16:36:16;6.72;;;2.95;;
25175;SDS011;13135;55.166;61.286;2023-07-13T16:39:00;4.75;;;2.90;;
25175;SDS011;13135;55.166;61.286;2023-07-13T16:41:44;5.32;;;2.33;;
25175;SDS011;13135;55.166;61.286;2023-07-13T16:47:43;6.53;;;2.50;;
25175;SDS011;13135;55.166;61.286;2023-07-13T16:50:31;6.95;;;3.12;;
25175;SDS011;13135;55.166;61.286;2023-07-13T16:53:22;3.25;;;2.30;;
25175;SDS011;13135;55.166;61.286;2023-07-13T16:59:28;4.37;;;2.47;;
25175;SDS011;13135;55.166;61.286;2023-07-13T17:02:31;4.10;;;2.72;;
25175;SDS011;13135;55.166;61.286;2023-07-13T17:05:16;3.53;;;2.37;;
25175;SDS011;13135;55.166;61.286;2023-07-13T17:08:00;4.80;;;2.90;;
25175;SDS011;13135;55.166;61.286;2023-07-13T17:10:44;7.87;;;3.60;;
25175;SDS011;13135;55.166;61.286;2023-07-13T17:13:28;5.65;;;3.58;;
25175;SDS011;13135;55.166;61.286;2023-07-13T17:16:13;5.30;;;3.80;;
25175;SDS011;13135;55.166;61.286;2023-07-13T17:18:58;5.75;;;3.60;;
25175;SDS011;13135;55.166;61.286;2023-07-13T17:21:43;5.12;;;4.62;;
25175;SDS011;13135;55.166;61.286;2023-07-13T17:24:28;9.60;;;4.00;;
25175;SDS011;13135;55.166;61.286;2023-07-13T17:27:13;8.80;;;3.92;;
25175;SDS011;13135;55.166;61.286;2023-07-13T17:29:57;11.70;;;4.03;;
25175;SDS011;13135;55.166;61.286;2023-07-13T17:36:11;6.65;;;3.85;;
25175;SDS011;13135;55.166;61.286;2023-07-13T17:38:55;7.80;;;4.30;;
25175;SDS011;13135;55.166;61.286;2023-07-13T17:41:37;8.10;;;5.45;;
25175;SDS011;13135;55.166;61.286;2023-07-13T17:44:21;10.60;;;5.10;;
25175;SDS011;13135;55.166;61.286;2023-07-13T17:49:59;5.55;;;3.72;;
25175;SDS011;13135;55.166;61.286;2023-07-13T17:52:43;6.82;;;3.08;;
25175;SDS011;13135;55.166;61.286;2023-07-13T17:55:27;5.45;;;3.17;;
25175;SDS011;13135;55.166;61.286;2023-07-13T17:58:11;6.25;;;3.33;;
25175;SDS011;13135;55.166;61.286;2023-07-13T18:00:56;4.37;;;3.47;;
25175;SDS011;13135;55.166;61.286;2023-07-13T18:03:43;6.47;;;3.50;;
25175;SDS011;13135;55.166;61.286;2023-07-13T18:06:28;4.95;;;3.03;;
25175;SDS011;13135;55.166;61.286;2023-07-13T18:09:13;4.45;;;3.20;;
25175;SDS011;13135;55.166;61.286;2023-07-13T18:15:02;4.57;;;3.10;;
25175;SDS011;13135;55.166;61.286;2023-07-13T18:17:48;4.72;;;3.20;;